sensor_id;sensor_type;location;lat;lon;timestamp;P1;durP1;ratioP1;P2;durP2;ratioP2
67665;SDS011;54448;51.472;-2.574;2023-03-01T00:01:06;3.33;;;0.80;;
67665;SDS011;54448;51.472;-2.574;2023-03-01T00:03:33;1.20;;;0.60;;
67665;SDS011;54448;51.472;-2.574;2023-03-01T00:05:58;2.92;;;0.70;;
67665;SDS011;54448;51.472;-2.574;2023-03-01T00:08:24;1.25;;;0.50;;
67665;SDS011;54448;51.472;-2.574;2023-03-01T00:10:59;2.15;;;0.68;;
67665;SDS011;54448;51.472;-2.574;2023-03-01T00:13:32;1.08;;;0.60;;
67665;SDS011;54448;51.472;-2.574;2023-03-01T00:15:58;0.88;;;0.57;;
67665;SDS011;54448;51.472;-2.574;2023-03-01T00:18:24;1.83;;;0.50;;
67665;SDS011;54448;51.472;-2.574;2023-03-01T00:20:50;1.38;;;0.70;;
67665;SDS011;54448;51.472;-2.574;2023-03-01T00:23:19;1.40;;;0.40;;
67665;SDS011;54448;51.472;-2.574;2023-03-01T00:25:45;2.80;;;0.95;;
67665;SDS011;54448;51.472;-2.574;2023-03-01T00:28:10;3.40;;;0.57;;
67665;SDS011;54448;51.472;-2.574;2023-03-01T00:30:35;0.90;;;0.50;;
67665;SDS011;54448;51.472;-2.574;2023-03-01T00:33:01;1.65;;;0.60;;
67665;SDS011;54448;51.472;-2.574;2023-03-01T00:35:26;1.25;;;0.50;;
67665;SDS011;54448;51.472;-2.574;2023-03-01T00:37:51;0.88;;;0.40;;
67665;SDS011;54448;51.472;-2.574;2023-03-01T00:40:23;1.33;;;0.43;;
67665;SDS011;54448;51.472;-2.574;2023-03-01T00:42:49;0.75;;;0.50;;
67665;SDS011;54448;51.472;-2.574;2023-03-01T00:45:14;1.58;;;0.50;;
67665;SDS011;54448;51.472;-2.574;2023-03-01T00:47:40;4.75;;;0.60;;
67665;SDS011;54448;51.472;-2.574;2023-03-01T00:50:05;2.03;;;0.38;;
67665;SDS011;54448;51.472;-2.574;2023-03-01T00:52:31;2.08;;;0.57;;
67665;SDS011;54448;51.472;-2.574;2023-03-01T00:54:57;2.50;;;0.70;;
67665;SDS011;54448;51.472;-2.574;2023-03-01T00:57:23;1.67;;;0.60;;
67665;SDS011;54448;51.472;-2.574;2023-03-01T00:59:48;2.67;;;0.80;;
67665;SDS011;54448;51.472;-2.574;2023-03-01T01:02:14;3.10;;;0.70;;
67665;SDS011;54448;51.472;-2.574;2023-03-01T01:04:39;0.98;;;0.60;;
67665;SDS011;54448;51.472;-2.574;2023-03-01T01:07:04;2.90;;;0.90;;
67665;SDS011;54448;51.472;-2.574;2023-03-01T01:09:30;1.67;;;0.75;;
67665;SDS011;54448;51.472;-2.574;2023-03-01T01:11:56;1.35;;;0.60;;
67665;SDS011;54448;51.472;-2.574;2023-03-01T01:14:21;1.30;;;0.57;;
67665;SDS011;54448;51.472;-2.574;2023-03-01T01:16:47;2.92;;;0.50;;
67665;SDS011;54448;51.472;-2.574;2023-03-01T01:19:12;6.07;;;0.68;;
67665;SDS011;54448;51.472;-2.574;2023-03-01T01:21:38;0.60;;;0.30;;
67665;SDS011;54448;51.472;-2.574;2023-03-01T01:24:04;2.03;;;0.38;;
67665;SDS011;54448;51.472;-2.574;2023-03-01T01:26:30;0.40;;;0.30;;
67665;SDS011;54448;51.472;-2.574;2023-03-01T01:28:57;1.63;;;0.52;;
67665;SDS011;54448;51.472;-2.574;2023-03-01T01:31:23;0.80;;;0.50;;
67665;SDS011;54448;51.472;-2.574;2023-03-01T01:33:49;13.63;;;0.75;;
67665;SDS011;54448;51.472;-2.574;2023-03-01T01:36:14;1.30;;;0.52;;
67665;SDS011;54448;51.472;-2.574;2023-03-01T01:38:41;2.95;;;0.60;;
67665;SDS011;54448;51.472;-2.574;2023-03-01T01:41:07;2.42;;;0.50;;
67665;SDS011;54448;51.472;-2.574;2023-03-01T01:44:16;1.48;;;0.70;;
67665;SDS011;54448;51.472;-2.574;2023-03-01T01:46:35;1.52;;;0.60;;
67665;SDS011;54448;51.472;-2.574;2023-03-01T01:49:04;2.60;;;0.70;;
67665;SDS011;54448;51.472;-2.574;2023-03-01T01:51:40;1.25;;;0.60;;
67665;SDS011;54448;51.472;-2.574;2023-03-01T01:54:18;0.95;;;0.60;;
67665;SDS011;54448;51.472;-2.574;2023-03-01T01:56:48;1.55;;;0.60;;
67665;SDS011;54448;51.472;-2.574;2023-03-01T01:59:18;6.53;;;0.70;;
67665;SDS011;54448;51.472;-2.574;2023-03-01T02:01:44;3.85;;;0.70;;
67665;SDS011;54448;51.472;-2.574;2023-03-01T02:04:09;2.45;;;0.50;;
67665;SDS011;54448;51.472;-2.574;2023-03-01T02:06:38;1.10;;;0.50;;
67665;SDS011;54448;51.472;-2.574;2023-03-01T02:09:08;1.52;;;0.68;;
67665;SDS011;54448;51.472;-2.574;2023-03-01T02:11:37;3.10;;;0.70;;
67665;SDS011;54448;51.472;-2.574;2023-03-01T02:14:03;1.40;;;0.50;;
67665;SDS011;54448;51.472;-2.574;2023-03-01T02:16:29;6.55;;;0.77;;
67665;SDS011;54448;51.472;-2.574;2023-03-01T02:18:56;1.77;;;0.60;;
67665;SDS011;54448;51.472;-2.574;2023-03-01T02:21:26;2.55;;;1.15;;
67665;SDS011;54448;51.472;-2.574;2023-03-01T02:23:56;1.42;;;0.90;;
67665;SDS011;54448;51.472;-2.574;2023-03-01T02:28:52;4.57;;;0.80;;
67665;SDS011;54448;51.472;-2.574;2023-03-01T02:31:18;6.47;;;1.00;;
67665;SDS011;54448;51.472;-2.574;2023-03-01T02:34:03;2.00;;;0.73;;
67665;SDS011;54448;51.472;-2.574;2023-03-01T02:36:37;5.57;;;1.00;;
67665;SDS011;54448;51.472;-2.574;2023-03-01T02:39:06;1.67;;;0.73;;
67665;SDS011;54448;51.472;-2.574;2023-03-01T02:41:39;4.00;;;1.55;;
67665;SDS011;54448;51.472;-2.574;2023-03-01T02:44:06;4.30;;;0.90;;
67665;SDS011;54448;51.472;-2.574;2023-03-01T02:46:31;2.55;;;0.80;;
67665;SDS011;54448;51.472;-2.574;2023-03-01T02:48:57;1.15;;;0.70;;
67665;SDS011;54448;51.472;-2.574;2023-03-01T02:56:47;1.20;;;0.77;;
67665;SDS011;54448;51.472;-2.574;2023-03-01T02:59:14;2.65;;;1.08;;
67665;SDS011;54448;51.472;-2.574;2023-03-01T03:01:41;7.55;;;1.15;;
67665;SDS011;54448;51.472;-2.574;2023-03-01T03:04:08;1.75;;;1.00;;
67665;SDS011;54448;51.472;-2.574;2023-03-01T03:06:36;5.25;;;1.40;;
67665;SDS011;54448;51.472;-2.574;2023-03-01T03:09:02;4.75;;;1.38;;
67665;SDS011;54448;51.472;-2.574;2023-03-01T03:11:28;5.78;;;1.23;;
67665;SDS011;54448;51.472;-2.574;2023-03-01T03:13:54;2.15;;;1.05;;
67665;SDS011;54448;51.472;-2.574;2023-03-01T03:16:20;4.95;;;1.10;;
67665;SDS011;54448;51.472;-2.574;2023-03-01T03:18:45;8.48;;;1.33;;
67665;SDS011;54448;51.472;-2.574;2023-03-01T03:21:11;7.07;;;1.20;;
67665;SDS011;54448;51.472;-2.574;2023-03-01T03:23:37;3.80;;;1.40;;
67665;SDS011;54448;51.472;-2.574;2023-03-01T03:26:04;4.32;;;1.33;;
67665;SDS011;54448;51.472;-2.574;2023-03-01T03:28:32;2.78;;;1.20;;
67665;SDS011;54448;51.472;-2.574;2023-03-01T03:30:59;6.28;;;1.30;;
67665;SDS011;54448;51.472;-2.574;2023-03-01T03:33:29;2.80;;;1.30;;
67665;SDS011;54448;51.472;-2.574;2023-03-01T03:35:54;3.17;;;1.15;;
67665;SDS011;54448;51.472;-2.574;2023-03-01T03:38:20;4.30;;;1.27;;
67665;SDS011;54448;51.472;-2.574;2023-03-01T03:40:59;2.47;;;1.10;;
67665;SDS011;54448;51.472;-2.574;2023-03-01T03:43:30;3.17;;;1.10;;
67665;SDS011;54448;51.472;-2.574;2023-03-01T03:45:57;3.22;;;1.08;;
67665;SDS011;54448;51.472;-2.574;2023-03-01T03:48:22;1.65;;;0.90;;
67665;SDS011;54448;51.472;-2.574;2023-03-01T03:50:49;6.57;;;1.30;;
67665;SDS011;54448;51.472;-2.574;2023-03-01T03:53:16;2.65;;;1.00;;
67665;SDS011;54448;51.472;-2.574;2023-03-01T03:55:41;4.15;;;1.17;;
67665;SDS011;54448;51.472;-2.574;2023-03-01T03:58:08;2.70;;;0.90;;
67665;SDS011;54448;51.472;-2.574;2023-03-01T04:00:38;2.92;;;0.95;;
67665;SDS011;54448;51.472;-2.574;2023-03-01T04:03:06;3.35;;;0.90;;
67665;SDS011;54448;51.472;-2.574;2023-03-01T04:05:32;5.88;;;1.17;;
67665;SDS011;54448;51.472;-2.574;2023-03-01T04:07:57;3.42;;;1.10;;
67665;SDS011;54448;51.472;-2.574;2023-03-01T04:10:30;3.63;;;1.00;;
67665;SDS011;54448;51.472;-2.574;2023-03-01T04:12:57;2.38;;;0.88;;
67665;SDS011;54448;51.472;-2.574;2023-03-01T04:15:23;4.93;;;1.20;;
67665;SDS011;54448;51.472;-2.574;2023-03-01T04:17:51;4.47;;;1.10;;
67665;SDS011;54448;51.472;-2.574;2023-03-01T04:20:18;2.78;;;1.00;;
67665;SDS011;54448;51.472;-2.574;2023-03-01T04:22:50;1.73;;;0.80;;
67665;SDS011;54448;51.472;-2.574;2023-03-01T04:25:17;4.20;;;1.10;;
67665;SDS011;54448;51.472;-2.574;2023-03-01T04:27:42;4.57;;;0.90;;
67665;SDS011;54448;51.472;-2.574;2023-03-01T04:30:08;2.85;;;1.48;;
67665;SDS011;54448;51.472;-2.574;2023-03-01T04:32:34;4.47;;;1.10;;
67665;SDS011;54448;51.472;-2.574;2023-03-01T04:35:00;3.25;;;1.25;;
67665;SDS011;54448;51.472;-2.574;2023-03-01T04:37:25;2.10;;;0.85;;
67665;SDS011;54448;51.472;-2.574;2023-03-01T04:39:51;1.52;;;0.80;;
67665;SDS011;54448;51.472;-2.574;2023-03-01T04:42:17;4.22;;;1.10;;
67665;SDS011;54448;51.472;-2.574;2023-03-01T04:44:43;6.10;;;1.40;;
67665;SDS011;54448;51.472;-2.574;2023-03-01T04:47:09;4.30;;;1.17;;
67665;SDS011;54448;51.472;-2.574;2023-03-01T04:49:34;5.28;;;1.10;;
67665;SDS011;54448;51.472;-2.574;2023-03-01T04:51:59;3.20;;;1.10;;
67665;SDS011;54448;51.472;-2.574;2023-03-01T04:54:32;1.88;;;0.95;;
67665;SDS011;54448;51.472;-2.574;2023-03-01T04:56:58;2.17;;;1.30;;
67665;SDS011;54448;51.472;-2.574;2023-03-01T04:59:24;2.65;;;1.25;;
67665;SDS011;54448;51.472;-2.574;2023-03-01T05:01:53;3.55;;;1.45;;
67665;SDS011;54448;51.472;-2.574;2023-03-01T05:04:21;3.15;;;1.00;;
67665;SDS011;54448;51.472;-2.574;2023-03-01T05:06:47;3.47;;;1.40;;
67665;SDS011;54448;51.472;-2.574;2023-03-01T05:09:12;3.92;;;1.42;;
67665;SDS011;54448;51.472;-2.574;2023-03-01T05:11:37;4.25;;;1.70;;
67665;SDS011;54448;51.472;-2.574;2023-03-01T05:14:03;8.40;;;2.33;;
67665;SDS011;54448;51.472;-2.574;2023-03-01T05:16:32;7.53;;;1.85;;
67665;SDS011;54448;51.472;-2.574;2023-03-01T05:18:58;4.13;;;2.10;;
67665;SDS011;54448;51.472;-2.574;2023-03-01T05:21:24;7.20;;;2.80;;
67665;SDS011;54448;51.472;-2.574;2023-03-01T05:23:50;5.88;;;2.25;;
67665;SDS011;54448;51.472;-2.574;2023-03-01T05:26:16;6.30;;;2.05;;
67665;SDS011;54448;51.472;-2.574;2023-03-01T05:28:43;8.10;;;2.42;;
67665;SDS011;54448;51.472;-2.574;2023-03-01T05:31:09;5.00;;;2.65;;
67665;SDS011;54448;51.472;-2.574;2023-03-01T05:33:38;10.05;;;2.92;;
67665;SDS011;54448;51.472;-2.574;2023-03-01T05:36:04;6.22;;;2.65;;
67665;SDS011;54448;51.472;-2.574;2023-03-01T05:38:31;7.72;;;2.75;;
67665;SDS011;54448;51.472;-2.574;2023-03-01T05:40:56;8.10;;;2.60;;
67665;SDS011;54448;51.472;-2.574;2023-03-01T05:43:22;7.95;;;2.85;;
67665;SDS011;54448;51.472;-2.574;2023-03-01T05:45:47;5.47;;;3.10;;
67665;SDS011;54448;51.472;-2.574;2023-03-01T05:48:13;6.97;;;2.78;;
67665;SDS011;54448;51.472;-2.574;2023-03-01T05:50:40;9.70;;;3.97;;
67665;SDS011;54448;51.472;-2.574;2023-03-01T05:53:07;10.45;;;3.00;;
67665;SDS011;54448;51.472;-2.574;2023-03-01T05:55:35;7.65;;;3.17;;
67665;SDS011;54448;51.472;-2.574;2023-03-01T05:58:02;7.65;;;2.90;;
67665;SDS011;54448;51.472;-2.574;2023-03-01T06:00:29;7.35;;;3.03;;
67665;SDS011;54448;51.472;-2.574;2023-03-01T06:02:55;6.75;;;3.40;;
67665;SDS011;54448;51.472;-2.574;2023-03-01T06:05:21;6.55;;;3.10;;
67665;SDS011;54448;51.472;-2.574;2023-03-01T06:07:47;8.82;;;3.33;;
67665;SDS011;54448;51.472;-2.574;2023-03-01T06:10:13;7.30;;;3.20;;
67665;SDS011;54448;51.472;-2.574;2023-03-01T06:12:39;7.88;;;3.30;;
67665;SDS011;54448;51.472;-2.574;2023-03-01T06:15:05;5.68;;;2.78;;
67665;SDS011;54448;51.472;-2.574;2023-03-01T06:17:33;9.43;;;2.92;;
67665;SDS011;54448;51.472;-2.574;2023-03-01T06:20:06;9.35;;;4.10;;
67665;SDS011;54448;51.472;-2.574;2023-03-01T06:22:33;7.68;;;3.58;;
67665;SDS011;54448;51.472;-2.574;2023-03-01T06:24:58;10.55;;;3.92;;
67665;SDS011;54448;51.472;-2.574;2023-03-01T06:27:23;9.60;;;4.20;;
67665;SDS011;54448;51.472;-2.574;2023-03-01T06:29:49;9.35;;;4.18;;
67665;SDS011;54448;51.472;-2.574;2023-03-01T06:32:14;12.15;;;4.72;;
67665;SDS011;54448;51.472;-2.574;2023-03-01T06:34:39;11.02;;;4.45;;
67665;SDS011;54448;51.472;-2.574;2023-03-01T06:37:05;9.45;;;4.70;;
67665;SDS011;54448;51.472;-2.574;2023-03-01T06:39:32;14.05;;;4.82;;
67665;SDS011;54448;51.472;-2.574;2023-03-01T06:41:57;13.60;;;4.75;;
67665;SDS011;54448;51.472;-2.574;2023-03-01T06:44:23;10.10;;;4.43;;
67665;SDS011;54448;51.472;-2.574;2023-03-01T06:46:48;13.75;;;4.57;;
67665;SDS011;54448;51.472;-2.574;2023-03-01T06:49:13;16.17;;;5.70;;
67665;SDS011;54448;51.472;-2.574;2023-03-01T06:51:41;9.70;;;4.53;;
67665;SDS011;54448;51.472;-2.574;2023-03-01T06:54:06;10.77;;;4.50;;
67665;SDS011;54448;51.472;-2.574;2023-03-01T06:56:32;10.50;;;4.53;;
67665;SDS011;54448;51.472;-2.574;2023-03-01T06:58:57;9.85;;;4.20;;
67665;SDS011;54448;51.472;-2.574;2023-03-01T07:01:23;10.38;;;4.10;;
67665;SDS011;54448;51.472;-2.574;2023-03-01T07:03:48;12.82;;;4.82;;
67665;SDS011;54448;51.472;-2.574;2023-03-01T07:06:14;7.55;;;3.35;;
67665;SDS011;54448;51.472;-2.574;2023-03-01T07:08:39;9.38;;;3.80;;
67665;SDS011;54448;51.472;-2.574;2023-03-01T07:11:05;9.40;;;3.83;;
67665;SDS011;54448;51.472;-2.574;2023-03-01T07:13:30;8.90;;;3.40;;
67665;SDS011;54448;51.472;-2.574;2023-03-01T07:15:56;10.57;;;3.72;;
67665;SDS011;54448;51.472;-2.574;2023-03-01T07:18:21;9.32;;;3.67;;
67665;SDS011;54448;51.472;-2.574;2023-03-01T07:20:47;7.90;;;3.45;;
67665;SDS011;54448;51.472;-2.574;2023-03-01T07:23:12;8.15;;;3.22;;
67665;SDS011;54448;51.472;-2.574;2023-03-01T07:25:37;8.43;;;3.45;;
67665;SDS011;54448;51.472;-2.574;2023-03-01T07:28:03;12.10;;;3.63;;
67665;SDS011;54448;51.472;-2.574;2023-03-01T07:30:28;12.27;;;3.05;;
67665;SDS011;54448;51.472;-2.574;2023-03-01T07:32:54;7.72;;;2.97;;
67665;SDS011;54448;51.472;-2.574;2023-03-01T07:35:20;11.05;;;2.65;;
67665;SDS011;54448;51.472;-2.574;2023-03-01T07:37:46;11.75;;;3.22;;
67665;SDS011;54448;51.472;-2.574;2023-03-01T07:40:12;10.93;;;2.85;;
67665;SDS011;54448;51.472;-2.574;2023-03-01T07:42:37;8.27;;;2.75;;
67665;SDS011;54448;51.472;-2.574;2023-03-01T07:45:03;6.97;;;2.45;;
67665;SDS011;54448;51.472;-2.574;2023-03-01T07:47:29;8.98;;;2.95;;
67665;SDS011;54448;51.472;-2.574;2023-03-01T07:49:55;10.23;;;2.90;;
67665;SDS011;54448;51.472;-2.574;2023-03-01T07:52:20;10.77;;;2.33;;
67665;SDS011;54448;51.472;-2.574;2023-03-01T07:54:45;8.10;;;2.20;;
67665;SDS011;54448;51.472;-2.574;2023-03-01T07:57:11;6.28;;;2.28;;
67665;SDS011;54448;51.472;-2.574;2023-03-01T07:59:36;5.30;;;2.42;;
67665;SDS011;54448;51.472;-2.574;2023-03-01T08:02:02;6.15;;;2.13;;
67665;SDS011;54448;51.472;-2.574;2023-03-01T08:04:27;7.00;;;1.80;;
67665;SDS011;54448;51.472;-2.574;2023-03-01T08:06:53;6.95;;;1.58;;
67665;SDS011;54448;51.472;-2.574;2023-03-01T08:09:20;7.72;;;1.42;;
67665;SDS011;54448;51.472;-2.574;2023-03-01T08:11:45;8.98;;;2.22;;
67665;SDS011;54448;51.472;-2.574;2023-03-01T08:14:11;5.75;;;1.80;;
67665;SDS011;54448;51.472;-2.574;2023-03-01T08:16:36;4.88;;;2.00;;
67665;SDS011;54448;51.472;-2.574;2023-03-01T08:19:05;16.17;;;2.97;;
67665;SDS011;54448;51.472;-2.574;2023-03-01T08:21:32;5.85;;;2.03;;
67665;SDS011;54448;51.472;-2.574;2023-03-01T08:23:59;4.43;;;1.63;;
67665;SDS011;54448;51.472;-2.574;2023-03-01T08:26:25;4.80;;;1.88;;
67665;SDS011;54448;51.472;-2.574;2023-03-01T08:28:50;8.10;;;1.75;;
67665;SDS011;54448;51.472;-2.574;2023-03-01T08:31:20;5.60;;;1.55;;
67665;SDS011;54448;51.472;-2.574;2023-03-01T08:33:52;5.82;;;1.40;;
67665;SDS011;54448;51.472;-2.574;2023-03-01T08:36:22;6.05;;;1.55;;
67665;SDS011;54448;51.472;-2.574;2023-03-01T08:38:51;2.15;;;1.00;;
67665;SDS011;54448;51.472;-2.574;2023-03-01T08:41:17;6.45;;;1.88;;
67665;SDS011;54448;51.472;-2.574;2023-03-01T08:43:43;5.60;;;1.55;;
67665;SDS011;54448;51.472;-2.574;2023-03-01T08:46:08;6.47;;;1.42;;
67665;SDS011;54448;51.472;-2.574;2023-03-01T08:48:33;4.85;;;1.60;;
67665;SDS011;54448;51.472;-2.574;2023-03-01T08:51:09;5.05;;;1.90;;
67665;SDS011;54448;51.472;-2.574;2023-03-01T08:53:35;6.55;;;2.30;;
67665;SDS011;54448;51.472;-2.574;2023-03-01T08:56:01;12.18;;;2.65;;
67665;SDS011;54448;51.472;-2.574;2023-03-01T08:58:27;7.20;;;2.38;;
67665;SDS011;54448;51.472;-2.574;2023-03-01T09:00:53;14.18;;;3.10;;
67665;SDS011;54448;51.472;-2.574;2023-03-01T09:03:18;9.82;;;2.70;;
67665;SDS011;54448;51.472;-2.574;2023-03-01T09:05:44;9.30;;;3.60;;
67665;SDS011;54448;51.472;-2.574;2023-03-01T09:08:10;12.07;;;2.83;;
67665;SDS011;54448;51.472;-2.574;2023-03-01T09:10:37;10.88;;;2.95;;
67665;SDS011;54448;51.472;-2.574;2023-03-01T09:13:03;5.72;;;2.78;;
67665;SDS011;54448;51.472;-2.574;2023-03-01T09:15:28;6.90;;;3.45;;
67665;SDS011;54448;51.472;-2.574;2023-03-01T09:17:54;8.00;;;3.13;;
67665;SDS011;54448;51.472;-2.574;2023-03-01T09:20:19;7.90;;;2.40;;
67665;SDS011;54448;51.472;-2.574;2023-03-01T09:22:44;7.07;;;2.35;;
67665;SDS011;54448;51.472;-2.574;2023-03-01T09:25:10;9.52;;;2.97;;
67665;SDS011;54448;51.472;-2.574;2023-03-01T09:27:35;9.07;;;2.38;;
67665;SDS011;54448;51.472;-2.574;2023-03-01T09:30:00;9.38;;;2.75;;
67665;SDS011;54448;51.472;-2.574;2023-03-01T09:32:26;8.43;;;2.97;;
67665;SDS011;54448;51.472;-2.574;2023-03-01T09:34:52;12.27;;;3.47;;
67665;SDS011;54448;51.472;-2.574;2023-03-01T09:37:28;11.15;;;2.85;;
67665;SDS011;54448;51.472;-2.574;2023-03-01T09:39:54;6.35;;;2.75;;
67665;SDS011;54448;51.472;-2.574;2023-03-01T09:42:19;10.50;;;2.83;;
67665;SDS011;54448;51.472;-2.574;2023-03-01T09:47:21;5.70;;;2.55;;
67665;SDS011;54448;51.472;-2.574;2023-03-01T09:49:52;12.75;;;2.72;;
67665;SDS011;54448;51.472;-2.574;2023-03-01T09:55:28;9.10;;;3.28;;
67665;SDS011;54448;51.472;-2.574;2023-03-01T09:57:59;6.97;;;2.33;;
67665;SDS011;54448;51.472;-2.574;2023-03-01T10:03:06;7.75;;;2.13;;
67665;SDS011;54448;51.472;-2.574;2023-03-01T10:05:53;4.60;;;2.28;;
67665;SDS011;54448;51.472;-2.574;2023-03-01T10:10:54;7.47;;;2.50;;
67665;SDS011;54448;51.472;-2.574;2023-03-01T10:13:21;4.95;;;2.58;;
67665;SDS011;54448;51.472;-2.574;2023-03-01T10:15:50;7.47;;;2.00;;
67665;SDS011;54448;51.472;-2.574;2023-03-01T10:18:25;3.83;;;1.77;;
67665;SDS011;54448;51.472;-2.574;2023-03-01T10:20:56;6.28;;;2.03;;
67665;SDS011;54448;51.472;-2.574;2023-03-01T10:23:49;4.47;;;1.70;;
67665;SDS011;54448;51.472;-2.574;2023-03-01T10:29:06;5.05;;;1.80;;
67665;SDS011;54448;51.472;-2.574;2023-03-01T10:31:41;4.85;;;1.30;;
67665;SDS011;54448;51.472;-2.574;2023-03-01T10:36:48;2.85;;;1.20;;
67665;SDS011;54448;51.472;-2.574;2023-03-01T10:39:19;3.17;;;1.75;;
67665;SDS011;54448;51.472;-2.574;2023-03-01T10:41:57;4.55;;;1.70;;
67665;SDS011;54448;51.472;-2.574;2023-03-01T10:44:38;4.97;;;1.60;;
67665;SDS011;54448;51.472;-2.574;2023-03-01T10:47:04;6.07;;;1.83;;
67665;SDS011;54448;51.472;-2.574;2023-03-01T10:49:29;4.95;;;2.08;;
67665;SDS011;54448;51.472;-2.574;2023-03-01T10:51:55;3.10;;;1.67;;
67665;SDS011;54448;51.472;-2.574;2023-03-01T10:54:30;5.07;;;1.77;;
67665;SDS011;54448;51.472;-2.574;2023-03-01T10:57:01;2.22;;;1.15;;
67665;SDS011;54448;51.472;-2.574;2023-03-01T10:59:30;5.55;;;1.52;;
67665;SDS011;54448;51.472;-2.574;2023-03-01T11:04:55;3.50;;;1.75;;
67665;SDS011;54448;51.472;-2.574;2023-03-01T11:07:22;4.93;;;2.17;;
67665;SDS011;54448;51.472;-2.574;2023-03-01T11:09:47;4.35;;;2.10;;
67665;SDS011;54448;51.472;-2.574;2023-03-01T11:12:13;5.40;;;2.17;;
67665;SDS011;54448;51.472;-2.574;2023-03-01T11:14:45;3.70;;;2.10;;
67665;SDS011;54448;51.472;-2.574;2023-03-01T11:17:17;5.30;;;2.10;;
67665;SDS011;54448;51.472;-2.574;2023-03-01T11:20:07;6.38;;;2.13;;
67665;SDS011;54448;51.472;-2.574;2023-03-01T11:22:46;4.35;;;2.15;;
67665;SDS011;54448;51.472;-2.574;2023-03-01T11:25:14;7.72;;;2.78;;
67665;SDS011;54448;51.472;-2.574;2023-03-01T11:27:41;3.47;;;1.77;;
67665;SDS011;54448;51.472;-2.574;2023-03-01T11:32:53;7.35;;;2.42;;
67665;SDS011;54448;51.472;-2.574;2023-03-01T11:35:24;10.68;;;2.65;;
67665;SDS011;54448;51.472;-2.574;2023-03-01T11:40:59;8.05;;;2.22;;
67665;SDS011;54448;51.472;-2.574;2023-03-01T11:49:00;6.32;;;2.40;;
67665;SDS011;54448;51.472;-2.574;2023-03-01T11:56:48;4.78;;;1.48;;
67665;SDS011;54448;51.472;-2.574;2023-03-01T12:07:40;5.57;;;2.05;;
67665;SDS011;54448;51.472;-2.574;2023-03-01T12:10:43;7.55;;;2.00;;
67665;SDS011;54448;51.472;-2.574;2023-03-01T12:13:27;3.53;;;1.63;;
67665;SDS011;54448;51.472;-2.574;2023-03-01T12:19:12;6.75;;;2.50;;
67665;SDS011;54448;51.472;-2.574;2023-03-01T12:21:42;4.68;;;2.08;;
67665;SDS011;54448;51.472;-2.574;2023-03-01T12:29:42;6.53;;;2.50;;
67665;SDS011;54448;51.472;-2.574;2023-03-01T12:35:35;7.68;;;2.88;;
67665;SDS011;54448;51.472;-2.574;2023-03-01T12:38:31;5.60;;;2.37;;
67665;SDS011;54448;51.472;-2.574;2023-03-01T12:41:43;7.50;;;3.13;;
67665;SDS011;54448;51.472;-2.574;2023-03-01T12:46:50;7.28;;;3.47;;
67665;SDS011;54448;51.472;-2.574;2023-03-01T12:49:28;9.63;;;2.60;;
67665;SDS011;54448;51.472;-2.574;2023-03-01T12:52:00;11.10;;;3.15;;
67665;SDS011;54448;51.472;-2.574;2023-03-01T12:54:33;8.45;;;3.70;;
67665;SDS011;54448;51.472;-2.574;2023-03-01T12:57:15;8.60;;;3.50;;
67665;SDS011;54448;51.472;-2.574;2023-03-01T12:59:45;8.45;;;3.47;;
67665;SDS011;54448;51.472;-2.574;2023-03-01T13:02:24;12.20;;;3.55;;
67665;SDS011;54448;51.472;-2.574;2023-03-01T13:07:36;9.52;;;4.07;;
67665;SDS011;54448;51.472;-2.574;2023-03-01T13:10:19;7.68;;;3.83;;
67665;SDS011;54448;51.472;-2.574;2023-03-01T13:13:13;9.15;;;4.00;;
67665;SDS011;54448;51.472;-2.574;2023-03-01T13:15:48;10.18;;;4.22;;
67665;SDS011;54448;51.472;-2.574;2023-03-01T13:30:57;7.40;;;3.95;;
67665;SDS011;54448;51.472;-2.574;2023-03-01T13:35:48;7.55;;;3.58;;
67665;SDS011;54448;51.472;-2.574;2023-03-01T13:49:14;8.95;;;3.70;;
67665;SDS011;54448;51.472;-2.574;2023-03-01T13:51:41;7.93;;;3.70;;
67665;SDS011;54448;51.472;-2.574;2023-03-01T13:54:12;10.20;;;4.22;;
67665;SDS011;54448;51.472;-2.574;2023-03-01T13:56:37;6.63;;;3.80;;
67665;SDS011;54448;51.472;-2.574;2023-03-01T13:59:13;20.85;;;4.10;;
67665;SDS011;54448;51.472;-2.574;2023-03-01T14:01:40;9.48;;;3.25;;
67665;SDS011;54448;51.472;-2.574;2023-03-01T14:06:48;6.72;;;3.50;;
67665;SDS011;54448;51.472;-2.574;2023-03-01T14:09:18;10.65;;;3.47;;
67665;SDS011;54448;51.472;-2.574;2023-03-01T14:11:52;12.13;;;3.75;;
67665;SDS011;54448;51.472;-2.574;2023-03-01T14:17:25;10.35;;;3.05;;
67665;SDS011;54448;51.472;-2.574;2023-03-01T14:20:09;8.23;;;2.97;;
67665;SDS011;54448;51.472;-2.574;2023-03-01T14:22:46;5.30;;;2.50;;
67665;SDS011;54448;51.472;-2.574;2023-03-01T14:27:45;7.53;;;2.65;;
67665;SDS011;54448;51.472;-2.574;2023-03-01T14:30:19;10.75;;;2.92;;
67665;SDS011;54448;51.472;-2.574;2023-03-01T14:33:18;6.78;;;2.55;;
67665;SDS011;54448;51.472;-2.574;2023-03-01T14:35:51;11.23;;;3.22;;
67665;SDS011;54448;51.472;-2.574;2023-03-01T14:38:27;5.22;;;2.72;;
67665;SDS011;54448;51.472;-2.574;2023-03-01T14:41:00;12.13;;;3.45;;
67665;SDS011;54448;51.472;-2.574;2023-03-01T14:43:28;8.35;;;3.17;;
67665;SDS011;54448;51.472;-2.574;2023-03-01T14:45:54;8.85;;;3.42;;
67665;SDS011;54448;51.472;-2.574;2023-03-01T14:48:20;7.50;;;3.20;;
67665;SDS011;54448;51.472;-2.574;2023-03-01T14:50:46;8.23;;;3.85;;
67665;SDS011;54448;51.472;-2.574;2023-03-01T14:53:16;13.00;;;3.40;;
67665;SDS011;54448;51.472;-2.574;2023-03-01T14:55:51;5.60;;;2.47;;
67665;SDS011;54448;51.472;-2.574;2023-03-01T14:58:19;15.45;;;3.25;;
67665;SDS011;54448;51.472;-2.574;2023-03-01T15:00:56;8.70;;;3.28;;
67665;SDS011;54448;51.472;-2.574;2023-03-01T15:03:24;8.00;;;3.45;;
67665;SDS011;54448;51.472;-2.574;2023-03-01T15:06:02;10.52;;;4.05;;
67665;SDS011;54448;51.472;-2.574;2023-03-01T15:08:28;7.00;;;3.45;;
67665;SDS011;54448;51.472;-2.574;2023-03-01T15:13:39;6.65;;;2.65;;
67665;SDS011;54448;51.472;-2.574;2023-03-01T15:18:38;5.43;;;3.30;;
67665;SDS011;54448;51.472;-2.574;2023-03-01T15:21:13;14.32;;;4.88;;
67665;SDS011;54448;51.472;-2.574;2023-03-01T15:23:41;8.75;;;3.40;;
67665;SDS011;54448;51.472;-2.574;2023-03-01T15:26:17;10.60;;;3.88;;
67665;SDS011;54448;51.472;-2.574;2023-03-01T15:28:49;10.27;;;4.15;;
67665;SDS011;54448;51.472;-2.574;2023-03-01T15:31:22;8.55;;;3.38;;
67665;SDS011;54448;51.472;-2.574;2023-03-01T15:33:52;17.15;;;3.90;;
67665;SDS011;54448;51.472;-2.574;2023-03-01T15:36:32;8.95;;;3.20;;
67665;SDS011;54448;51.472;-2.574;2023-03-01T15:44:37;6.97;;;2.80;;
67665;SDS011;54448;51.472;-2.574;2023-03-01T15:47:23;9.02;;;2.75;;
67665;SDS011;54448;51.472;-2.574;2023-03-01T15:49:51;10.95;;;3.58;;
67665;SDS011;54448;51.472;-2.574;2023-03-01T15:52:22;7.22;;;2.55;;
67665;SDS011;54448;51.472;-2.574;2023-03-01T15:54:59;4.70;;;2.38;;
67665;SDS011;54448;51.472;-2.574;2023-03-01T15:57:26;4.95;;;2.17;;
67665;SDS011;54448;51.472;-2.574;2023-03-01T15:59:52;9.73;;;2.20;;
67665;SDS011;54448;51.472;-2.574;2023-03-01T16:02:17;6.47;;;2.70;;
67665;SDS011;54448;51.472;-2.574;2023-03-01T16:04:45;6.55;;;2.70;;
67665;SDS011;54448;51.472;-2.574;2023-03-01T16:07:11;4.20;;;2.20;;
67665;SDS011;54448;51.472;-2.574;2023-03-01T16:09:37;6.57;;;2.45;;
67665;SDS011;54448;51.472;-2.574;2023-03-01T16:12:02;11.43;;;2.97;;
67665;SDS011;54448;51.472;-2.574;2023-03-01T16:14:27;9.40;;;3.22;;
67665;SDS011;54448;51.472;-2.574;2023-03-01T16:16:53;7.03;;;3.10;;
67665;SDS011;54448;51.472;-2.574;2023-03-01T16:19:18;9.50;;;4.03;;
67665;SDS011;54448;51.472;-2.574;2023-03-01T16:21:43;10.30;;;3.95;;
67665;SDS011;54448;51.472;-2.574;2023-03-01T16:24:11;9.80;;;3.85;;
67665;SDS011;54448;51.472;-2.574;2023-03-01T16:26:37;11.02;;;4.55;;
67665;SDS011;54448;51.472;-2.574;2023-03-01T16:29:02;12.00;;;4.53;;
67665;SDS011;54448;51.472;-2.574;2023-03-01T16:31:28;11.68;;;4.53;;
67665;SDS011;54448;51.472;-2.574;2023-03-01T16:33:54;15.10;;;5.18;;
67665;SDS011;54448;51.472;-2.574;2023-03-01T16:36:21;11.65;;;4.60;;